sensor_id;sensor_type;location;lat;lon;timestamp;P1;durP1;ratioP1;P2;durP2;ratioP2
11548;SDS011;61444;59.472;18.306;2022-08-30T00:02:25;0.93;;;0.70;;
11548;SDS011;61444;59.472;18.306;2022-08-30T00:04:34;2.43;;;0.70;;
11548;SDS011;61444;59.472;18.306;2022-08-30T00:06:43;0.60;;;0.60;;
11548;SDS011;61444;59.472;18.306;2022-08-30T00:11:24;1.53;;;0.70;;
11548;SDS011;61444;59.472;18.306;2022-08-30T00:13:35;0.97;;;0.50;;
11548;SDS011;61444;59.472;18.306;2022-08-30T00:15:44;0.87;;;0.50;;
11548;SDS011;61444;59.472;18.306;2022-08-30T00:17:53;0.83;;;0.50;;
11548;SDS011;61444;59.472;18.306;2022-08-30T00:20:02;1.53;;;0.50;;
11548;SDS011;61444;59.472;18.306;2022-08-30T00:22:13;0.77;;;0.50;;
11548;SDS011;61444;59.472;18.306;2022-08-30T00:24:24;0.70;;;0.70;;
11548;SDS011;61444;59.472;18.306;2022-08-30T00:26:33;3.50;;;0.60;;
11548;SDS011;61444;59.472;18.306;2022-08-30T00:28:43;1.40;;;0.70;;
11548;SDS011;61444;59.472;18.306;2022-08-30T00:30:52;0.90;;;0.60;;
11548;SDS011;61444;59.472;18.306;2022-08-30T00:33:00;3.13;;;0.50;;
11548;SDS011;61444;59.472;18.306;2022-08-30T00:35:09;1.80;;;0.67;;
11548;SDS011;61444;59.472;18.306;2022-08-30T00:37:20;0.80;;;0.70;;
11548;SDS011;61444;59.472;18.306;2022-08-30T00:39:29;1.43;;;0.50;;
11548;SDS011;61444;59.472;18.306;2022-08-30T00:41:37;1.83;;;0.60;;
11548;SDS011;61444;59.472;18.306;2022-08-30T00:43:47;1.07;;;0.80;;
11548;SDS011;61444;59.472;18.306;2022-08-30T00:45:56;0.70;;;0.50;;
11548;SDS011;61444;59.472;18.306;2022-08-30T00:48:05;1.87;;;0.70;;
11548;SDS011;61444;59.472;18.306;2022-08-30T00:50:15;0.87;;;0.80;;
11548;SDS011;61444;59.472;18.306;2022-08-30T00:52:24;1.00;;;0.70;;
11548;SDS011;61444;59.472;18.306;2022-08-30T00:54:33;1.03;;;0.60;;
11548;SDS011;61444;59.472;18.306;2022-08-30T00:56:43;1.13;;;0.60;;
11548;SDS011;61444;59.472;18.306;2022-08-30T00:58:54;2.27;;;0.70;;
11548;SDS011;61444;59.472;18.306;2022-08-30T01:01:04;1.00;;;0.60;;
11548;SDS011;61444;59.472;18.306;2022-08-30T01:03:14;1.93;;;0.70;;
11548;SDS011;61444;59.472;18.306;2022-08-30T01:05:23;2.63;;;0.60;;
11548;SDS011;61444;59.472;18.306;2022-08-30T01:07:31;1.83;;;0.60;;
11548;SDS011;61444;59.472;18.306;2022-08-30T01:09:40;1.53;;;0.60;;
11548;SDS011;61444;59.472;18.306;2022-08-30T01:11:49;3.07;;;0.60;;
11548;SDS011;61444;59.472;18.306;2022-08-30T01:13:59;0.80;;;0.60;;
11548;SDS011;61444;59.472;18.306;2022-08-30T01:16:08;0.60;;;0.60;;
11548;SDS011;61444;59.472;18.306;2022-08-30T01:18:21;2.07;;;0.60;;
11548;SDS011;61444;59.472;18.306;2022-08-30T01:20:32;1.83;;;0.70;;
11548;SDS011;61444;59.472;18.306;2022-08-30T01:22:43;1.90;;;0.67;;
11548;SDS011;61444;59.472;18.306;2022-08-30T01:24:56;1.23;;;0.60;;
11548;SDS011;61444;59.472;18.306;2022-08-30T01:27:05;1.90;;;1.00;;
11548;SDS011;61444;59.472;18.306;2022-08-30T01:29:14;1.43;;;0.53;;
11548;SDS011;61444;59.472;18.306;2022-08-30T01:31:25;1.00;;;0.70;;
11548;SDS011;61444;59.472;18.306;2022-08-30T01:33:34;3.60;;;0.70;;
11548;SDS011;61444;59.472;18.306;2022-08-30T01:35:48;0.60;;;0.53;;
11548;SDS011;61444;59.472;18.306;2022-08-30T01:37:57;1.13;;;0.70;;
11548;SDS011;61444;59.472;18.306;2022-08-30T01:40:08;1.10;;;0.60;;
11548;SDS011;61444;59.472;18.306;2022-08-30T01:42:17;1.47;;;0.60;;
11548;SDS011;61444;59.472;18.306;2022-08-30T01:44:25;0.63;;;0.50;;
11548;SDS011;61444;59.472;18.306;2022-08-30T01:46:35;1.17;;;0.73;;
11548;SDS011;61444;59.472;18.306;2022-08-30T01:48:45;1.50;;;0.60;;
11548;SDS011;61444;59.472;18.306;2022-08-30T01:50:59;1.10;;;0.77;;
11548;SDS011;61444;59.472;18.306;2022-08-30T01:53:08;0.80;;;0.63;;
11548;SDS011;61444;59.472;18.306;2022-08-30T01:55:21;1.60;;;0.70;;
11548;SDS011;61444;59.472;18.306;2022-08-30T01:57:30;0.87;;;0.70;;
11548;SDS011;61444;59.472;18.306;2022-08-30T01:59:40;1.07;;;0.70;;
11548;SDS011;61444;59.472;18.306;2022-08-30T02:01:53;2.37;;;0.77;;
11548;SDS011;61444;59.472;18.306;2022-08-30T02:04:02;0.97;;;0.70;;
11548;SDS011;61444;59.472;18.306;2022-08-30T02:06:13;1.90;;;0.80;;
11548;SDS011;61444;59.472;18.306;2022-08-30T02:08:24;1.43;;;0.80;;
11548;SDS011;61444;59.472;18.306;2022-08-30T02:10:35;2.93;;;0.70;;
11548;SDS011;61444;59.472;18.306;2022-08-30T02:12:44;0.83;;;0.53;;
11548;SDS011;61444;59.472;18.306;2022-08-30T02:14:53;0.93;;;0.70;;
11548;SDS011;61444;59.472;18.306;2022-08-30T02:17:01;4.20;;;0.70;;
11548;SDS011;61444;59.472;18.306;2022-08-30T02:19:10;1.03;;;0.53;;
11548;SDS011;61444;59.472;18.306;2022-08-30T02:21:20;2.23;;;0.90;;
11548;SDS011;61444;59.472;18.306;2022-08-30T02:23:28;2.63;;;0.70;;
11548;SDS011;61444;59.472;18.306;2022-08-30T02:25:39;0.73;;;0.60;;
11548;SDS011;61444;59.472;18.306;2022-08-30T02:27:47;1.23;;;0.70;;
11548;SDS011;61444;59.472;18.306;2022-08-30T02:29:56;1.80;;;0.70;;
11548;SDS011;61444;59.472;18.306;2022-08-30T02:32:04;0.97;;;0.70;;
11548;SDS011;61444;59.472;18.306;2022-08-30T02:34:13;0.93;;;0.80;;
11548;SDS011;61444;59.472;18.306;2022-08-30T02:36:22;2.73;;;0.80;;
11548;SDS011;61444;59.472;18.306;2022-08-30T02:38:31;0.60;;;0.60;;
11548;SDS011;61444;59.472;18.306;2022-08-30T02:40:41;1.10;;;0.90;;
11548;SDS011;61444;59.472;18.306;2022-08-30T02:42:50;0.70;;;0.70;;
11548;SDS011;61444;59.472;18.306;2022-08-30T02:44:59;1.33;;;0.70;;
11548;SDS011;61444;59.472;18.306;2022-08-30T02:47:07;1.80;;;0.70;;
11548;SDS011;61444;59.472;18.306;2022-08-30T02:49:17;1.17;;;0.97;;
11548;SDS011;61444;59.472;18.306;2022-08-30T02:51:40;1.30;;;0.70;;
11548;SDS011;61444;59.472;18.306;2022-08-30T02:53:49;3.00;;;0.80;;
11548;SDS011;61444;59.472;18.306;2022-08-30T02:55:59;0.70;;;0.70;;
11548;SDS011;61444;59.472;18.306;2022-08-30T02:58:08;3.70;;;0.83;;
11548;SDS011;61444;59.472;18.306;2022-08-30T03:00:17;2.00;;;0.90;;
11548;SDS011;61444;59.472;18.306;2022-08-30T03:02:29;1.57;;;0.77;;
11548;SDS011;61444;59.472;18.306;2022-08-30T03:04:38;0.77;;;0.70;;
11548;SDS011;61444;59.472;18.306;2022-08-30T03:06:49;2.80;;;0.80;;
11548;SDS011;61444;59.472;18.306;2022-08-30T03:08:58;1.60;;;0.60;;
11548;SDS011;61444;59.472;18.306;2022-08-30T03:11:08;1.70;;;0.90;;
11548;SDS011;61444;59.472;18.306;2022-08-30T03:13:19;2.47;;;0.97;;
11548;SDS011;61444;59.472;18.306;2022-08-30T03:15:27;1.77;;;1.00;;
11548;SDS011;61444;59.472;18.306;2022-08-30T03:17:37;2.10;;;0.90;;
11548;SDS011;61444;59.472;18.306;2022-08-30T03:19:45;3.03;;;0.80;;
11548;SDS011;61444;59.472;18.306;2022-08-30T03:21:54;4.73;;;0.80;;
11548;SDS011;61444;59.472;18.306;2022-08-30T03:24:03;1.07;;;0.80;;
11548;SDS011;61444;59.472;18.306;2022-08-30T03:26:13;0.97;;;0.80;;
11548;SDS011;61444;59.472;18.306;2022-08-30T03:28:21;1.10;;;1.00;;
11548;SDS011;61444;59.472;18.306;2022-08-30T03:30:30;3.53;;;0.70;;
11548;SDS011;61444;59.472;18.306;2022-08-30T03:32:39;1.27;;;0.90;;
11548;SDS011;61444;59.472;18.306;2022-08-30T03:34:48;2.00;;;0.60;;
11548;SDS011;61444;59.472;18.306;2022-08-30T03:36:57;1.10;;;0.73;;
11548;SDS011;61444;59.472;18.306;2022-08-30T03:39:07;1.20;;;0.80;;
11548;SDS011;61444;59.472;18.306;2022-08-30T03:41:20;2.00;;;0.83;;
11548;SDS011;61444;59.472;18.306;2022-08-30T03:43:29;1.10;;;0.87;;
11548;SDS011;61444;59.472;18.306;2022-08-30T03:45:38;2.83;;;0.83;;
11548;SDS011;61444;59.472;18.306;2022-08-30T03:47:47;2.33;;;0.90;;
11548;SDS011;61444;59.472;18.306;2022-08-30T03:49:56;2.20;;;0.90;;
11548;SDS011;61444;59.472;18.306;2022-08-30T03:52:05;0.60;;;0.60;;
11548;SDS011;61444;59.472;18.306;2022-08-30T03:54:13;1.67;;;0.90;;
11548;SDS011;61444;59.472;18.306;2022-08-30T03:56:24;3.10;;;0.80;;
11548;SDS011;61444;59.472;18.306;2022-08-30T03:58:32;0.80;;;0.80;;
11548;SDS011;61444;59.472;18.306;2022-08-30T04:00:41;1.83;;;0.80;;
11548;SDS011;61444;59.472;18.306;2022-08-30T04:02:49;1.47;;;0.77;;
11548;SDS011;61444;59.472;18.306;2022-08-30T04:04:58;1.33;;;0.73;;
11548;SDS011;61444;59.472;18.306;2022-08-30T04:07:07;1.10;;;0.80;;
11548;SDS011;61444;59.472;18.306;2022-08-30T04:09:16;3.80;;;0.80;;
11548;SDS011;61444;59.472;18.306;2022-08-30T04:11:26;1.87;;;0.90;;
11548;SDS011;61444;59.472;18.306;2022-08-30T04:13:35;0.70;;;0.70;;
11548;SDS011;61444;59.472;18.306;2022-08-30T04:15:43;1.27;;;0.80;;
11548;SDS011;61444;59.472;18.306;2022-08-30T04:17:52;3.60;;;0.80;;
11548;SDS011;61444;59.472;18.306;2022-08-30T04:20:01;2.70;;;0.90;;
11548;SDS011;61444;59.472;18.306;2022-08-30T04:22:09;0.80;;;0.80;;
11548;SDS011;61444;59.472;18.306;2022-08-30T04:24:18;1.87;;;0.90;;
11548;SDS011;61444;59.472;18.306;2022-08-30T04:26:28;1.27;;;0.83;;
11548;SDS011;61444;59.472;18.306;2022-08-30T04:28:37;2.27;;;0.90;;
11548;SDS011;61444;59.472;18.306;2022-08-30T04:30:48;1.40;;;0.80;;
11548;SDS011;61444;59.472;18.306;2022-08-30T04:32:57;1.67;;;1.47;;
11548;SDS011;61444;59.472;18.306;2022-08-30T04:35:06;1.17;;;0.97;;
11548;SDS011;61444;59.472;18.306;2022-08-30T04:37:15;2.57;;;0.90;;
11548;SDS011;61444;59.472;18.306;2022-08-30T04:39:25;1.60;;;1.20;;
11548;SDS011;61444;59.472;18.306;2022-08-30T04:41:36;2.13;;;1.30;;
11548;SDS011;61444;59.472;18.306;2022-08-30T04:43:46;1.13;;;0.90;;
11548;SDS011;61444;59.472;18.306;2022-08-30T04:45:55;3.87;;;1.00;;
11548;SDS011;61444;59.472;18.306;2022-08-30T04:48:04;1.17;;;1.00;;
11548;SDS011;61444;59.472;18.306;2022-08-30T04:50:15;3.50;;;0.93;;
11548;SDS011;61444;59.472;18.306;2022-08-30T04:52:25;3.63;;;1.10;;
11548;SDS011;61444;59.472;18.306;2022-08-30T04:54:35;3.80;;;0.83;;
11548;SDS011;61444;59.472;18.306;2022-08-30T04:56:45;1.83;;;0.80;;
11548;SDS011;61444;59.472;18.306;2022-08-30T04:58:54;2.83;;;1.00;;
11548;SDS011;61444;59.472;18.306;2022-08-30T05:01:02;1.23;;;0.80;;
11548;SDS011;61444;59.472;18.306;2022-08-30T05:03:15;0.93;;;0.87;;
11548;SDS011;61444;59.472;18.306;2022-08-30T05:05:24;0.80;;;0.70;;
11548;SDS011;61444;59.472;18.306;2022-08-30T05:07:47;0.87;;;0.87;;
11548;SDS011;61444;59.472;18.306;2022-08-30T05:09:56;0.77;;;0.70;;
11548;SDS011;61444;59.472;18.306;2022-08-30T05:12:06;2.47;;;0.90;;
11548;SDS011;61444;59.472;18.306;2022-08-30T05:14:15;1.87;;;0.70;;
11548;SDS011;61444;59.472;18.306;2022-08-30T05:16:23;1.90;;;0.87;;
11548;SDS011;61444;59.472;18.306;2022-08-30T05:18:32;1.73;;;0.80;;
11548;SDS011;61444;59.472;18.306;2022-08-30T05:20:41;2.57;;;1.13;;
11548;SDS011;61444;59.472;18.306;2022-08-30T05:22:50;0.97;;;0.90;;
11548;SDS011;61444;59.472;18.306;2022-08-30T05:24:59;1.77;;;1.00;;
11548;SDS011;61444;59.472;18.306;2022-08-30T05:27:09;3.30;;;1.27;;
11548;SDS011;61444;59.472;18.306;2022-08-30T05:29:18;1.53;;;0.60;;
11548;SDS011;61444;59.472;18.306;2022-08-30T05:31:29;1.33;;;0.90;;
11548;SDS011;61444;59.472;18.306;2022-08-30T05:33:38;1.17;;;0.57;;
11548;SDS011;61444;59.472;18.306;2022-08-30T05:35:47;2.00;;;0.70;;
11548;SDS011;61444;59.472;18.306;2022-08-30T05:37:55;1.93;;;0.80;;
11548;SDS011;61444;59.472;18.306;2022-08-30T05:40:05;0.80;;;0.80;;
11548;SDS011;61444;59.472;18.306;2022-08-30T05:42:18;1.83;;;0.77;;
11548;SDS011;61444;59.472;18.306;2022-08-30T05:44:26;2.60;;;0.67;;
11548;SDS011;61444;59.472;18.306;2022-08-30T05:46:35;0.70;;;0.70;;
11548;SDS011;61444;59.472;18.306;2022-08-30T05:48:45;1.27;;;0.70;;
11548;SDS011;61444;59.472;18.306;2022-08-30T05:51:00;3.57;;;1.30;;
11548;SDS011;61444;59.472;18.306;2022-08-30T05:53:09;0.70;;;0.63;;
11548;SDS011;61444;59.472;18.306;2022-08-30T05:55:18;1.47;;;0.80;;
11548;SDS011;61444;59.472;18.306;2022-08-30T05:57:28;1.50;;;0.70;;
11548;SDS011;61444;59.472;18.306;2022-08-30T05:59:40;0.87;;;0.63;;
11548;SDS011;61444;59.472;18.306;2022-08-30T06:01:49;0.67;;;0.67;;
11548;SDS011;61444;59.472;18.306;2022-08-30T06:03:59;0.70;;;0.63;;
11548;SDS011;61444;59.472;18.306;2022-08-30T06:06:09;1.37;;;0.60;;
11548;SDS011;61444;59.472;18.306;2022-08-30T06:08:18;0.97;;;0.70;;
11548;SDS011;61444;59.472;18.306;2022-08-30T06:10:29;3.50;;;0.60;;
11548;SDS011;61444;59.472;18.306;2022-08-30T06:12:38;1.43;;;0.70;;
11548;SDS011;61444;59.472;18.306;2022-08-30T06:14:47;2.63;;;0.80;;
11548;SDS011;61444;59.472;18.306;2022-08-30T06:16:58;0.87;;;0.60;;
11548;SDS011;61444;59.472;18.306;2022-08-30T06:19:07;2.60;;;0.80;;
11548;SDS011;61444;59.472;18.306;2022-08-30T06:21:16;2.03;;;0.80;;
11548;SDS011;61444;59.472;18.306;2022-08-30T06:23:25;1.33;;;0.80;;
11548;SDS011;61444;59.472;18.306;2022-08-30T06:25:34;3.23;;;0.87;;
11548;SDS011;61444;59.472;18.306;2022-08-30T06:27:48;1.33;;;0.70;;
11548;SDS011;61444;59.472;18.306;2022-08-30T06:30:02;1.30;;;0.70;;
11548;SDS011;61444;59.472;18.306;2022-08-30T06:32:13;0.97;;;0.80;;
11548;SDS011;61444;59.472;18.306;2022-08-30T06:34:22;2.30;;;0.80;;
11548;SDS011;61444;59.472;18.306;2022-08-30T06:36:30;0.70;;;0.70;;
11548;SDS011;61444;59.472;18.306;2022-08-30T06:38:39;2.10;;;0.63;;
11548;SDS011;61444;59.472;18.306;2022-08-30T06:40:48;4.33;;;0.80;;
11548;SDS011;61444;59.472;18.306;2022-08-30T06:42:58;0.70;;;0.70;;
11548;SDS011;61444;59.472;18.306;2022-08-30T06:45:07;1.23;;;0.90;;
11548;SDS011;61444;59.472;18.306;2022-08-30T06:47:16;1.53;;;0.90;;
11548;SDS011;61444;59.472;18.306;2022-08-30T06:49:25;0.97;;;0.80;;
11548;SDS011;61444;59.472;18.306;2022-08-30T06:51:34;2.60;;;0.70;;
11548;SDS011;61444;59.472;18.306;2022-08-30T06:53:45;2.13;;;0.80;;
11548;SDS011;61444;59.472;18.306;2022-08-30T06:55:54;1.50;;;0.77;;
11548;SDS011;61444;59.472;18.306;2022-08-30T06:58:05;0.73;;;0.70;;
11548;SDS011;61444;59.472;18.306;2022-08-30T07:00:15;1.13;;;0.87;;
11548;SDS011;61444;59.472;18.306;2022-08-30T07:02:23;1.93;;;0.87;;
11548;SDS011;61444;59.472;18.306;2022-08-30T07:04:33;0.90;;;0.70;;
11548;SDS011;61444;59.472;18.306;2022-08-30T07:06:41;1.37;;;0.93;;
11548;SDS011;61444;59.472;18.306;2022-08-30T07:08:50;3.43;;;1.00;;
11548;SDS011;61444;59.472;18.306;2022-08-30T07:11:01;1.00;;;0.70;;
11548;SDS011;61444;59.472;18.306;2022-08-30T07:13:12;2.10;;;0.80;;
11548;SDS011;61444;59.472;18.306;2022-08-30T07:15:21;1.80;;;0.70;;
11548;SDS011;61444;59.472;18.306;2022-08-30T07:17:29;0.63;;;0.63;;
11548;SDS011;61444;59.472;18.306;2022-08-30T07:19:55;0.80;;;0.60;;
11548;SDS011;61444;59.472;18.306;2022-08-30T07:22:04;1.67;;;0.80;;
11548;SDS011;61444;59.472;18.306;2022-08-30T07:24:12;1.17;;;0.80;;
11548;SDS011;61444;59.472;18.306;2022-08-30T07:26:22;0.70;;;0.70;;
11548;SDS011;61444;59.472;18.306;2022-08-30T07:28:33;1.70;;;1.10;;
11548;SDS011;61444;59.472;18.306;2022-08-30T07:30:43;1.37;;;1.00;;
11548;SDS011;61444;59.472;18.306;2022-08-30T07:32:52;0.80;;;0.80;;
11548;SDS011;61444;59.472;18.306;2022-08-30T07:35:00;1.30;;;0.90;;
11548;SDS011;61444;59.472;18.306;2022-08-30T07:37:09;2.60;;;0.90;;
11548;SDS011;61444;59.472;18.306;2022-08-30T07:39:23;2.27;;;1.00;;
11548;SDS011;61444;59.472;18.306;2022-08-30T07:41:33;1.33;;;0.80;;
11548;SDS011;61444;59.472;18.306;2022-08-30T07:43:45;1.20;;;0.80;;
11548;SDS011;61444;59.472;18.306;2022-08-30T07:45:54;1.80;;;0.80;;
11548;SDS011;61444;59.472;18.306;2022-08-30T07:48:03;1.97;;;0.73;;
11548;SDS011;61444;59.472;18.306;2022-08-30T07:50:12;1.73;;;0.83;;
11548;SDS011;61444;59.472;18.306;2022-08-30T07:52:21;0.87;;;0.77;;
11548;SDS011;61444;59.472;18.306;2022-08-30T07:54:30;1.13;;;0.77;;
11548;SDS011;61444;59.472;18.306;2022-08-30T07:56:38;1.00;;;0.73;;
11548;SDS011;61444;59.472;18.306;2022-08-30T07:58:48;0.90;;;0.80;;
11548;SDS011;61444;59.472;18.306;2022-08-30T08:00:57;1.23;;;0.80;;
11548;SDS011;61444;59.472;18.306;2022-08-30T08:03:07;1.20;;;0.80;;
11548;SDS011;61444;59.472;18.306;2022-08-30T08:05:16;0.70;;;0.70;;
11548;SDS011;61444;59.472;18.306;2022-08-30T08:07:30;1.00;;;0.80;;
11548;SDS011;61444;59.472;18.306;2022-08-30T08:09:38;1.10;;;0.80;;
11548;SDS011;61444;59.472;18.306;2022-08-30T08:11:47;0.93;;;0.80;;
11548;SDS011;61444;59.472;18.306;2022-08-30T08:13:57;1.60;;;1.00;;
11548;SDS011;61444;59.472;18.306;2022-08-30T08:16:05;2.77;;;0.90;;
11548;SDS011;61444;59.472;18.306;2022-08-30T08:18:14;1.13;;;0.77;;
11548;SDS011;61444;59.472;18.306;2022-08-30T08:20:23;0.60;;;0.60;;
11548;SDS011;61444;59.472;18.306;2022-08-30T08:22:35;1.23;;;0.80;;
11548;SDS011;61444;59.472;18.306;2022-08-30T08:24:45;1.00;;;0.80;;
11548;SDS011;61444;59.472;18.306;2022-08-30T08:26:54;0.60;;;0.60;;
11548;SDS011;61444;59.472;18.306;2022-08-30T08:29:04;1.30;;;0.70;;
11548;SDS011;61444;59.472;18.306;2022-08-30T08:31:13;1.40;;;0.83;;
11548;SDS011;61444;59.472;18.306;2022-08-30T08:33:22;1.90;;;0.97;;
11548;SDS011;61444;59.472;18.306;2022-08-30T08:35:31;2.00;;;1.00;;
11548;SDS011;61444;59.472;18.306;2022-08-30T08:37:40;1.43;;;0.73;;
11548;SDS011;61444;59.472;18.306;2022-08-30T08:39:49;0.93;;;0.93;;
11548;SDS011;61444;59.472;18.306;2022-08-30T08:42:00;1.10;;;0.93;;
11548;SDS011;61444;59.472;18.306;2022-08-30T08:44:14;1.13;;;1.10;;
11548;SDS011;61444;59.472;18.306;2022-08-30T08:46:27;1.17;;;1.17;;
11548;SDS011;61444;59.472;18.306;2022-08-30T08:48:40;1.43;;;1.30;;
11548;SDS011;61444;59.472;18.306;2022-08-30T08:51:07;1.30;;;1.20;;
11548;SDS011;61444;59.472;18.306;2022-08-30T08:53:34;1.60;;;1.20;;
11548;SDS011;61444;59.472;18.306;2022-08-30T08:55:52;1.40;;;1.30;;
11548;SDS011;61444;59.472;18.306;2022-08-30T08:58:01;2.00;;;1.20;;
11548;SDS011;61444;59.472;18.306;2022-08-30T09:00:12;2.00;;;1.30;;
11548;SDS011;61444;59.472;18.306;2022-08-30T09:02:22;1.47;;;1.37;;
11548;SDS011;61444;59.472;18.306;2022-08-30T09:04:32;1.47;;;1.37;;
11548;SDS011;61444;59.472;18.306;2022-08-30T09:06:47;2.00;;;1.50;;
11548;SDS011;61444;59.472;18.306;2022-08-30T09:08:57;2.23;;;2.03;;
11548;SDS011;61444;59.472;18.306;2022-08-30T09:11:06;1.67;;;1.57;;
11548;SDS011;61444;59.472;18.306;2022-08-30T09:13:22;2.10;;;1.80;;
11548;SDS011;61444;59.472;18.306;2022-08-30T09:15:33;2.40;;;1.67;;
11548;SDS011;61444;59.472;18.306;2022-08-30T09:17:51;1.20;;;1.20;;
11548;SDS011;61444;59.472;18.306;2022-08-30T09:20:00;2.10;;;1.40;;
11548;SDS011;61444;59.472;18.306;2022-08-30T09:24:36;1.60;;;1.50;;
11548;SDS011;61444;59.472;18.306;2022-08-30T09:26:48;1.80;;;1.67;;
11548;SDS011;61444;59.472;18.306;2022-08-30T09:28:56;1.17;;;1.07;;
11548;SDS011;61444;59.472;18.306;2022-08-30T09:31:16;0.90;;;0.90;;
11548;SDS011;61444;59.472;18.306;2022-08-30T09:33:25;0.90;;;0.90;;
11548;SDS011;61444;59.472;18.306;2022-08-30T09:35:35;0.83;;;0.80;;
11548;SDS011;61444;59.472;18.306;2022-08-30T09:37:45;1.00;;;0.90;;
11548;SDS011;61444;59.472;18.306;2022-08-30T09:39:55;0.90;;;0.90;;
11548;SDS011;61444;59.472;18.306;2022-08-30T09:42:10;2.27;;;1.00;;
11548;SDS011;61444;59.472;18.306;2022-08-30T09:44:20;1.50;;;1.40;;
11548;SDS011;61444;59.472;18.306;2022-08-30T09:46:30;5.87;;;1.43;;
11548;SDS011;61444;59.472;18.306;2022-08-30T09:48:40;1.33;;;1.20;;
11548;SDS011;61444;59.472;18.306;2022-08-30T09:50:51;2.10;;;1.40;;
11548;SDS011;61444;59.472;18.306;2022-08-30T09:53:03;1.20;;;1.10;;
11548;SDS011;61444;59.472;18.306;2022-08-30T09:55:20;1.50;;;1.40;;
11548;SDS011;61444;59.472;18.306;2022-08-30T09:57:31;2.77;;;1.50;;
11548;SDS011;61444;59.472;18.306;2022-08-30T09:59:44;1.60;;;1.50;;
11548;SDS011;61444;59.472;18.306;2022-08-30T10:01:58;1.50;;;1.40;;
11548;SDS011;61444;59.472;18.306;2022-08-30T10:04:11;1.97;;;1.60;;
11548;SDS011;61444;59.472;18.306;2022-08-30T10:06:24;1.67;;;1.30;;
11548;SDS011;61444;59.472;18.306;2022-08-30T10:08:39;1.30;;;1.20;;
11548;SDS011;61444;59.472;18.306;2022-08-30T10:10:50;1.50;;;1.40;;
11548;SDS011;61444;59.472;18.306;2022-08-30T10:13:01;1.03;;;1.00;;
11548;SDS011;61444;59.472;18.306;2022-08-30T10:15:15;1.63;;;1.03;;
11548;SDS011;61444;59.472;18.306;2022-08-30T10:17:30;0.97;;;0.97;;
11548;SDS011;61444;59.472;18.306;2022-08-30T10:19:50;1.40;;;1.17;;
11548;SDS011;61444;59.472;18.306;2022-08-30T10:22:03;1.13;;;1.03;;
11548;SDS011;61444;59.472;18.306;2022-08-30T10:24:13;1.00;;;1.00;;
11548;SDS011;61444;59.472;18.306;2022-08-30T10:26:27;0.70;;;0.70;;
11548;SDS011;61444;59.472;18.306;2022-08-30T10:28:39;2.00;;;0.80;;
11548;SDS011;61444;59.472;18.306;2022-08-30T10:30:54;0.87;;;0.87;;
11548;SDS011;61444;59.472;18.306;2022-08-30T10:33:05;1.77;;;1.10;;
11548;SDS011;61444;59.472;18.306;2022-08-30T10:35:17;0.97;;;0.90;;
11548;SDS011;61444;59.472;18.306;2022-08-30T10:37:27;2.63;;;1.00;;
11548;SDS011;61444;59.472;18.306;2022-08-30T10:39:38;0.90;;;0.90;;
11548;SDS011;61444;59.472;18.306;2022-08-30T10:41:48;1.20;;;1.10;;
11548;SDS011;61444;59.472;18.306;2022-08-30T10:43:58;1.30;;;0.80;;
11548;SDS011;61444;59.472;18.306;2022-08-30T10:46:09;0.97;;;0.70;;
11548;SDS011;61444;59.472;18.306;2022-08-30T10:48:22;0.70;;;0.70;;
11548;SDS011;61444;59.472;18.306;2022-08-30T10:50:33;4.00;;;1.00;;
11548;SDS011;61444;59.472;18.306;2022-08-30T10:52:49;1.87;;;0.90;;
11548;SDS011;61444;59.472;18.306;2022-08-30T10:55:01;1.10;;;0.90;;
11548;SDS011;61444;59.472;18.306;2022-08-30T10:57:13;0.80;;;0.80;;
11548;SDS011;61444;59.472;18.306;2022-08-30T10:59:22;0.80;;;0.80;;
11548;SDS011;61444;59.472;18.306;2022-08-30T11:01:34;0.83;;;0.83;;
11548;SDS011;61444;59.472;18.306;2022-08-30T11:04:00;1.43;;;0.90;;
11548;SDS011;61444;59.472;18.306;2022-08-30T11:06:20;1.10;;;1.10;;
11548;SDS011;61444;59.472;18.306;2022-08-30T11:08:44;1.57;;;1.47;;
11548;SDS011;61444;59.472;18.306;2022-08-30T11:10:57;1.90;;;1.67;;
11548;SDS011;61444;59.472;18.306;2022-08-30T11:13:09;1.73;;;1.63;;
11548;SDS011;61444;59.472;18.306;2022-08-30T11:15:20;1.87;;;1.27;;
11548;SDS011;61444;59.472;18.306;2022-08-30T11:17:30;2.10;;;1.27;;
11548;SDS011;61444;59.472;18.306;2022-08-30T11:19:43;2.03;;;1.23;;
11548;SDS011;61444;59.472;18.306;2022-08-30T11:22:07;1.27;;;1.17;;
11548;SDS011;61444;59.472;18.306;2022-08-30T11:24:18;1.50;;;1.30;;
11548;SDS011;61444;59.472;18.306;2022-08-30T11:28:59;1.50;;;1.40;;
11548;SDS011;61444;59.472;18.306;2022-08-30T11:31:08;1.13;;;1.03;;
11548;SDS011;61444;59.472;18.306;2022-08-30T11:33:40;0.97;;;0.97;;
11548;SDS011;61444;59.472;18.306;2022-08-30T11:35:52;1.30;;;1.20;;
11548;SDS011;61444;59.472;18.306;2022-08-30T11:38:09;1.33;;;1.13;;
11548;SDS011;61444;59.472;18.306;2022-08-30T11:42:55;1.20;;;1.20;;
11548;SDS011;61444;59.472;18.306;2022-08-30T11:47:37;1.13;;;1.13;;
11548;SDS011;61444;59.472;18.306;2022-08-30T11:49:49;1.10;;;1.10;;
11548;SDS011;61444;59.472;18.306;2022-08-30T11:52:05;1.00;;;1.00;;
11548;SDS011;61444;59.472;18.306;2022-08-30T11:54:35;1.23;;;1.23;;
11548;SDS011;61444;59.472;18.306;2022-08-30T11:56:48;1.40;;;1.27;;
11548;SDS011;61444;59.472;18.306;2022-08-30T11:59:04;2.83;;;1.53;;
11548;SDS011;61444;59.472;18.306;2022-08-30T12:01:16;1.40;;;1.30;;
11548;SDS011;61444;59.472;18.306;2022-08-30T12:03:53;1.53;;;1.43;;
11548;SDS011;61444;59.472;18.306;2022-08-30T12:06:04;1.47;;;1.37;;
11548;SDS011;61444;59.472;18.306;2022-08-30T12:10:40;1.47;;;1.00;;
11548;SDS011;61444;59.472;18.306;2022-08-30T12:12:51;1.53;;;1.00;;
11548;SDS011;61444;59.472;18.306;2022-08-30T12:15:00;1.03;;;0.87;;
11548;SDS011;61444;59.472;18.306;2022-08-30T12:17:10;0.80;;;0.80;;
11548;SDS011;61444;59.472;18.306;2022-08-30T12:19:36;2.60;;;1.00;;
11548;SDS011;61444;59.472;18.306;2022-08-30T12:21:52;2.27;;;0.80;;
11548;SDS011;61444;59.472;18.306;2022-08-30T12:24:02;3.67;;;1.17;;
11548;SDS011;61444;59.472;18.306;2022-08-30T12:26:16;1.47;;;1.00;;
11548;SDS011;61444;59.472;18.306;2022-08-30T12:28:25;1.07;;;0.97;;
11548;SDS011;61444;59.472;18.306;2022-08-30T12:30:34;1.20;;;1.10;;
11548;SDS011;61444;59.472;18.306;2022-08-30T12:32:45;1.93;;;0.90;;
11548;SDS011;61444;59.472;18.306;2022-08-30T12:34:56;0.77;;;0.70;;
11548;SDS011;61444;59.472;18.306;2022-08-30T12:37:06;0.90;;;0.90;;
11548;SDS011;61444;59.472;18.306;2022-08-30T12:39:18;1.03;;;0.90;;
11548;SDS011;61444;59.472;18.306;2022-08-30T12:41:29;1.27;;;1.00;;
11548;SDS011;61444;59.472;18.306;2022-08-30T12:43:39;1.10;;;1.00;;
11548;SDS011;61444;59.472;18.306;2022-08-30T12:45:55;1.17;;;0.90;;
11548;SDS011;61444;59.472;18.306;2022-08-30T12:48:13;1.20;;;1.10;;
11548;SDS011;61444;59.472;18.306;2022-08-30T12:50:26;1.83;;;1.03;;
11548;SDS011;61444;59.472;18.306;2022-08-30T12:52:35;1.30;;;1.03;;
11548;SDS011;61444;59.472;18.306;2022-08-30T12:54:46;2.07;;;1.30;;
11548;SDS011;61444;59.472;18.306;2022-08-30T12:57:00;1.37;;;1.17;;
11548;SDS011;61444;59.472;18.306;2022-08-30T12:59:39;1.20;;;1.07;;
11548;SDS011;61444;59.472;18.306;2022-08-30T13:02:04;1.53;;;1.43;;
11548;SDS011;61444;59.472;18.306;2022-08-30T13:04:26;2.07;;;1.40;;
11548;SDS011;61444;59.472;18.306;2022-08-30T13:06:36;1.70;;;1.60;;
11548;SDS011;61444;59.472;18.306;2022-08-30T13:08:47;1.97;;;1.87;;
11548;SDS011;61444;59.472;18.306;2022-08-30T13:10:58;1.90;;;1.80;;
11548;SDS011;61444;59.472;18.306;2022-08-30T13:13:24;1.80;;;1.70;;